Time;durP1;ratioP1;P1;durP2;ratioP2;P2;SDS_P1;SDS_P2;PMS_P1;PMS_P2;Temp;Humidity;BMP_temperature;BMP_pressure;BME280_temperature;BME280_humidity;BME280_pressure;Samples;Min_cycle;Max_cycle;Signal;HPM_P1;HPM_P2
2023/07/10 00:00:08;;;;;;;7.23;2.87;;;;;;;;;;5132390;27;20715;-75
2023/07/10 00:02:35;;;;;;;8.17;2.80;;;;;;;;;;5132068;27;20619;-75
2023/07/10 00:05:02;;;;;;;4.93;2.30;;;;;;;;;;5124885;27;20284;-75
2023/07/10 00:07:29;;;;;;;6.60;2.70;;;;;;;;;;5121825;27;20236;-76
2023/07/10 00:09:57;;;;;;;13.40;2.70;;;;;;;;;;5132570;27;20196;-75
2023/07/10 00:12:25;;;;;;;8.10;2.40;;;;;;;;;;5132743;27;20193;-76
2023/07/10 00:14:53;;;;;;;7.97;2.40;;;;;;;;;;5132010;27;20189;-76
2023/07/10 00:17:20;;;;;;;8.60;2.13;;;;;;;;;;5132292;27;20287;-75
2023/07/10 00:19:47;;;;;;;7.30;2.63;;;;;;;;;;5132284;27;20197;-75
2023/07/10 00:22:15;;;;;;;8.30;2.57;;;;;;;;;;5132249;27;20197;-76
2023/07/10 00:24:42;;;;;;;7.70;2.80;;;;;;;;;;5131935;27;20324;-76
2023/07/10 00:27:13;;;;;;;8.50;2.70;;;;;;;;;;5132877;27;20189;-76
2023/07/10 00:29:40;;;;;;;9.10;2.70;;;;;;;;;;5113596;27;20293;-77
2023/07/10 00:32:12;;;;;;;6.47;2.50;;;;;;;;;;5111558;28;20289;-76
2023/07/10 00:34:39;;;;;;;6.80;2.20;;;;;;;;;;5111589;28;20221;-76
2023/07/10 00:37:07;;;;;;;9.57;2.90;;;;;;;;;;5112199;28;20281;-75
2023/07/10 00:39:37;;;;;;;6.17;2.50;;;;;;;;;;5111450;28;20229;-75
2023/07/10 00:42:06;;;;;;;5.17;2.20;;;;;;;;;;5111502;28;20288;-76
2023/07/10 00:44:35;;;;;;;6.97;2.23;;;;;;;;;;5111419;28;20225;-76
2023/07/10 00:47:05;;;;;;;9.60;2.33;;;;;;;;;;5111566;28;20292;-76
2023/07/10 00:49:39;;;;;;;5.40;2.10;;;;;;;;;;5111990;28;20194;-76
2023/07/10 00:52:10;;;;;;;7.00;2.07;;;;;;;;;;5111439;28;20235;-75
2023/07/10 00:54:38;;;;;;;7.27;2.23;;;;;;;;;;5111503;28;20197;-76
2023/07/10 00:57:07;;;;;;;7.87;2.70;;;;;;;;;;5117546;28;20232;-75
2023/07/10 00:59:38;;;;;;;9.90;2.60;;;;;;;;;;5131834;27;20189;-76
2023/07/10 01:02:20;;;;;;;7.90;2.60;;;;;;;;;;5131533;28;20733;-76
2023/07/10 01:04:52;;;;;;;6.93;2.57;;;;;;;;;;5131682;28;20320;-76
2023/07/10 01:07:22;;;;;;;7.73;2.67;;;;;;;;;;5121557;27;20629;-76
2023/07/10 01:09:51;;;;;;;12.63;3.00;;;;;;;;;;5136155;27;20193;-76
2023/07/10 01:12:19;;;;;;;6.00;2.50;;;;;;;;;;5118207;27;20284;-75
2023/07/10 01:14:46;;;;;;;7.57;2.60;;;;;;;;;;5115297;28;20208;-76
2023/07/10 01:17:14;;;;;;;9.70;2.83;;;;;;;;;;5135690;27;20740;-75
2023/07/10 01:19:43;;;;;;;10.57;2.60;;;;;;;;;;5135042;27;20197;-76
2023/07/10 01:22:12;;;;;;;8.20;2.63;;;;;;;;;;5135840;27;20249;-75
2023/07/10 01:24:39;;;;;;;6.93;2.63;;;;;;;;;;5135384;27;20316;-76
2023/07/10 01:27:11;;;;;;;5.60;2.30;;;;;;;;;;5135460;27;20239;-77
2023/07/10 01:29:41;;;;;;;8.73;2.83;;;;;;;;;;5135773;27;20197;-75
2023/07/10 01:32:09;;;;;;;6.83;3.07;;;;;;;;;;5135452;27;20242;-76
2023/07/10 01:34:38;;;;;;;8.13;3.07;;;;;;;;;;5135716;27;20225;-75
2023/07/10 01:37:06;;;;;;;8.57;2.90;;;;;;;;;;5135680;27;20196;-75
2023/07/10 01:39:38;;;;;;;9.67;3.17;;;;;;;;;;5135747;27;20196;-75
2023/07/10 01:42:05;;;;;;;7.20;3.10;;;;;;;;;;5135014;27;20242;-76
2023/07/10 01:44:34;;;;;;;10.30;3.10;;;;;;;;;;5135319;27;20320;-76
2023/07/10 01:47:02;;;;;;;10.17;2.90;;;;;;;;;;5135256;27;20284;-76
2023/07/10 01:49:32;;;;;;;6.63;2.83;;;;;;;;;;5135170;27;20283;-75
2023/07/10 01:52:00;;;;;;;7.27;2.77;;;;;;;;;;5134931;27;20705;-75
2023/07/10 01:54:27;;;;;;;9.03;3.03;;;;;;;;;;5135235;27;20225;-75
2023/07/10 01:56:55;;;;;;;8.13;3.00;;;;;;;;;;5134855;27;20292;-76
2023/07/10 01:59:23;;;;;;;8.80;3.30;;;;;;;;;;5135184;27;20220;-77
2023/07/10 02:01:50;;;;;;;7.80;3.20;;;;;;;;;;5134973;27;20197;-76
2023/07/10 02:04:17;;;;;;;7.47;2.87;;;;;;;;;;5134935;27;20312;-76
2023/07/10 02:06:44;;;;;;;7.37;3.10;;;;;;;;;;5135118;27;20289;-76
2023/07/10 02:09:11;;;;;;;9.90;3.20;;;;;;;;;;5134841;27;20221;-75
2023/07/10 02:11:39;;;;;;;10.30;3.23;;;;;;;;;;5134242;27;20228;-76
2023/07/10 02:14:08;;;;;;;10.90;3.30;;;;;;;;;;5134651;27;20288;-75
2023/07/10 02:16:35;;;;;;;8.80;3.33;;;;;;;;;;5134477;27;20201;-75
2023/07/10 02:19:04;;;;;;;7.53;3.00;;;;;;;;;;5133658;27;20197;-75
2023/07/10 02:21:32;;;;;;;6.13;2.87;;;;;;;;;;5134964;27;20579;-76
2023/07/10 02:23:59;;;;;;;8.43;3.27;;;;;;;;;;5134524;27;20224;-76
2023/07/10 02:26:28;;;;;;;10.77;2.83;;;;;;;;;;5134185;27;20616;-74
2023/07/10 02:28:55;;;;;;;8.13;2.90;;;;;;;;;;5134327;27;20261;-75
2023/07/10 02:31:24;;;;;;;8.97;2.80;;;;;;;;;;5134186;27;20204;-75
2023/07/10 02:33:51;;;;;;;6.13;3.17;;;;;;;;;;5134477;27;20200;-75
2023/07/10 02:36:19;;;;;;;6.60;3.03;;;;;;;;;;5134370;27;20295;-75
2023/07/10 02:38:46;;;;;;;8.30;3.17;;;;;;;;;;5134338;27;20283;-76
2023/07/10 02:41:13;;;;;;;9.23;3.13;;;;;;;;;;5134062;27;20228;-76
2023/07/10 02:43:40;;;;;;;8.70;3.03;;;;;;;;;;5134018;27;20331;-76
2023/07/10 02:46:07;;;;;;;8.73;3.50;;;;;;;;;;5133824;27;20224;-74
2023/07/10 02:48:36;;;;;;;9.03;3.37;;;;;;;;;;5134469;27;20228;-74
2023/07/10 02:51:03;;;;;;;8.53;3.60;;;;;;;;;;5134065;27;20225;-75
2023/07/10 02:53:30;;;;;;;9.80;3.60;;;;;;;;;;5134054;27;20755;-75
2023/07/10 02:55:57;;;;;;;7.77;3.17;;;;;;;;;;5133482;27;20292;-76
2023/07/10 02:58:25;;;;;;;9.10;3.43;;;;;;;;;;5134060;27;20198;-75
2023/07/10 03:00:58;;;;;;;7.23;3.10;;;;;;;;;;5133601;27;20293;-75
2023/07/10 03:03:25;;;;;;;8.30;3.30;;;;;;;;;;5133876;27;20389;-74
2023/07/10 03:05:57;;;;;;;6.57;3.20;;;;;;;;;;5133889;27;20197;-76
2023/07/10 03:08:25;;;;;;;5.90;3.30;;;;;;;;;;5133769;27;20283;-75
2023/07/10 03:10:59;;;;;;;6.53;3.60;;;;;;;;;;5133561;27;20189;-74
2023/07/10 03:13:26;;;;;;;7.07;3.20;;;;;;;;;;5133753;27;20188;-75
2023/07/10 03:16:02;;;;;;;8.77;3.03;;;;;;;;;;5133238;27;20197;-76
2023/07/10 03:18:30;;;;;;;8.63;3.30;;;;;;;;;;5133545;27;20280;-75
2023/07/10 03:20:58;;;;;;;7.07;3.50;;;;;;;;;;5133457;27;20284;-76
2023/07/10 03:23:25;;;;;;;7.40;3.50;;;;;;;;;;5132893;27;20221;-75
2023/07/10 03:25:53;;;;;;;9.97;4.03;;;;;;;;;;5133204;27;20291;-75
2023/07/10 03:28:20;;;;;;;9.73;3.60;;;;;;;;;;5133023;27;20284;-76
2023/07/10 03:30:47;;;;;;;12.07;3.67;;;;;;;;;;5133321;27;20250;-75
2023/07/10 03:33:15;;;;;;;7.83;3.80;;;;;;;;;;5133412;27;20246;-76
2023/07/10 03:35:42;;;;;;;8.93;4.10;;;;;;;;;;5133371;27;20275;-75
2023/07/10 03:38:11;;;;;;;8.60;3.83;;;;;;;;;;5132975;27;20276;-76
2023/07/10 03:40:38;;;;;;;13.60;3.70;;;;;;;;;;5133124;27;20610;-75
2023/07/10 03:43:05;;;;;;;11.20;3.83;;;;;;;;;;5132949;27;20646;-76
2023/07/10 03:45:32;;;;;;;10.13;3.80;;;;;;;;;;5133021;27;20315;-76
2023/07/10 03:47:59;;;;;;;10.90;3.60;;;;;;;;;;5132781;27;20300;-74
2023/07/10 03:50:27;;;;;;;7.70;3.90;;;;;;;;;;5132739;27;20256;-75
2023/07/10 03:52:54;;;;;;;8.73;3.63;;;;;;;;;;5132533;27;20665;-75
2023/07/10 03:55:22;;;;;;;9.90;3.80;;;;;;;;;;5132675;27;20753;-75
2023/07/10 03:57:49;;;;;;;10.77;3.80;;;;;;;;;;5132791;27;20284;-75
2023/07/10 04:00:17;;;;;;;9.63;4.07;;;;;;;;;;5132876;27;20272;-76
2023/07/10 04:02:44;;;;;;;10.70;3.70;;;;;;;;;;5133119;27;20225;-75
2023/07/10 04:05:11;;;;;;;11.43;4.27;;;;;;;;;;5132813;27;20319;-75
2023/07/10 04:07:38;;;;;;;10.77;3.67;;;;;;;;;;5132516;27;20270;-75
2023/07/10 04:10:06;;;;;;;9.40;3.93;;;;;;;;;;5133064;27;20232;-75
2023/07/10 04:12:34;;;;;;;9.20;3.83;;;;;;;;;;5132346;27;20204;-74
2023/07/10 04:15:02;;;;;;;8.43;3.53;;;;;;;;;;5132671;27;20217;-77
2023/07/10 04:17:29;;;;;;;13.90;4.03;;;;;;;;;;5132478;27;20208;-75
2023/07/10 04:19:56;;;;;;;9.27;3.97;;;;;;;;;;5132691;27;20714;-76
2023/07/10 04:22:23;;;;;;;9.17;3.90;;;;;;;;;;5132162;27;20217;-76
2023/07/10 04:24:50;;;;;;;9.73;4.20;;;;;;;;;;5132602;27;20241;-76
2023/07/10 04:27:17;;;;;;;10.97;3.93;;;;;;;;;;5132180;27;20239;-76
2023/07/10 04:29:46;;;;;;;11.10;3.93;;;;;;;;;;5132117;27;20225;-76
2023/07/10 04:32:13;;;;;;;15.53;5.00;;;;;;;;;;5132725;27;20217;-75
2023/07/10 04:34:40;;;;;;;12.03;4.50;;;;;;;;;;5132207;28;20209;-75
2023/07/10 04:37:07;;;;;;;11.83;4.40;;;;;;;;;;5131999;27;20295;-75
2023/07/10 04:39:34;;;;;;;13.90;4.37;;;;;;;;;;5132113;28;20201;-76
2023/07/10 04:42:02;;;;;;;12.20;4.93;;;;;;;;;;5134931;27;20280;-75
2023/07/10 04:44:30;;;;;;;20.80;5.40;;;;;;;;;;5136570;27;20227;-75
2023/07/10 04:46:59;;;;;;;12.77;5.30;;;;;;;;;;5136476;27;20200;-75
2023/07/10 04:49:26;;;;;;;16.00;5.27;;;;;;;;;;5136426;27;20284;-76
2023/07/10 04:51:53;;;;;;;13.00;4.60;;;;;;;;;;5136333;27;20233;-75
2023/07/10 04:54:20;;;;;;;14.60;5.27;;;;;;;;;;5136175;27;20287;-75
2023/07/10 04:56:47;;;;;;;12.60;5.07;;;;;;;;;;5136201;27;20288;-76
2023/07/10 04:59:14;;;;;;;13.20;5.37;;;;;;;;;;5136001;27;20231;-74
2023/07/10 05:01:42;;;;;;;17.53;5.20;;;;;;;;;;5136149;27;20279;-75
2023/07/10 05:04:10;;;;;;;13.50;5.00;;;;;;;;;;5135683;27;20288;-76
2023/07/10 05:06:38;;;;;;;10.53;4.63;;;;;;;;;;5136079;27;20288;-77
2023/07/10 05:09:05;;;;;;;14.57;5.03;;;;;;;;;;5136828;27;20221;-77
2023/07/10 05:11:32;;;;;;;14.60;4.80;;;;;;;;;;5136229;27;20554;-77
2023/07/10 05:14:00;;;;;;;16.60;5.17;;;;;;;;;;5135971;27;20284;-76
2023/07/10 05:16:27;;;;;;;15.73;5.33;;;;;;;;;;5135695;27;20229;-76
2023/07/10 05:18:54;;;;;;;10.60;4.90;;;;;;;;;;5135685;27;20201;-78
2023/07/10 05:21:23;;;;;;;14.70;5.23;;;;;;;;;;5135757;27;20272;-77
2023/07/10 05:23:50;;;;;;;15.20;5.20;;;;;;;;;;5135948;27;20283;-76
2023/07/10 05:26:19;;;;;;;12.53;4.67;;;;;;;;;;5135470;27;20341;-77
2023/07/10 05:28:46;;;;;;;14.73;5.20;;;;;;;;;;5135707;27;20200;-77
2023/07/10 05:31:14;;;;;;;15.80;4.93;;;;;;;;;;5136113;27;20744;-76
2023/07/10 05:33:41;;;;;;;17.37;5.27;;;;;;;;;;5135447;27;20759;-77
2023/07/10 05:36:10;;;;;;;13.30;4.77;;;;;;;;;;5135454;27;20232;-77
2023/07/10 05:38:39;;;;;;;14.60;4.30;;;;;;;;;;5135474;27;20708;-77
2023/07/10 05:41:07;;;;;;;12.50;4.40;;;;;;;;;;5135638;27;20209;-77
2023/07/10 05:43:34;;;;;;;12.88;4.13;;;;;;;;;;5135653;27;20288;-77
2023/07/10 05:46:02;;;;;;;10.05;3.85;;;;;;;;;;5135387;27;20319;-77
2023/07/10 05:48:29;;;;;;;8.63;3.65;;;;;;;;;;5135015;27;20284;-77
2023/07/10 05:50:56;;;;;;;9.00;3.63;;;;;;;;;;5135114;27;20320;-77
2023/07/10 05:53:24;;;;;;;12.10;3.80;;;;;;;;;;5134654;27;20280;-77
2023/07/10 05:55:53;;;;;;;9.63;3.63;;;;;;;;;;5135424;27;20296;-77
2023/07/10 05:58:21;;;;;;;11.73;3.72;;;;;;;;;;5134992;27;20197;-77
2023/07/10 06:00:49;;;;;;;9.85;3.80;;;;;;;;;;5135163;27;20741;-77
2023/07/10 06:03:17;;;;;;;8.38;3.30;;;;;;;;;;5134977;27;20276;-77
2023/07/10 06:05:44;;;;;;;12.98;3.50;;;;;;;;;;5134707;27;20312;-78
2023/07/10 06:08:12;;;;;;;6.43;2.90;;;;;;;;;;5134811;27;20914;-77
2023/07/10 06:10:39;;;;;;;10.00;3.13;;;;;;;;;;5135002;27;20806;-77
2023/07/10 06:13:07;;;;;;;10.70;2.92;;;;;;;;;;5135030;27;20683;-77
2023/07/10 06:15:34;;;;;;;6.97;2.42;;;;;;;;;;5134660;27;20292;-77
2023/07/10 06:18:02;;;;;;;7.38;2.78;;;;;;;;;;5134559;27;20193;-77
2023/07/10 06:20:29;;;;;;;10.23;2.58;;;;;;;;;;5134431;27;20193;-77
2023/07/10 06:22:56;;;;;;;8.07;2.45;;;;;;;;;;5134470;27;20197;-77
2023/07/10 06:25:23;;;;;;;8.23;3.00;;;;;;;;;;5134307;27;20304;-77
2023/07/10 06:27:50;;;;;;;5.15;2.72;;;;;;;;;;5134598;27;20292;-78
2023/07/10 06:30:19;;;;;;;8.77;3.30;;;;;;;;;;5134662;27;20290;-78
2023/07/10 06:32:46;;;;;;;10.23;3.30;;;;;;;;;;5134074;27;20193;-77
2023/07/10 06:35:13;;;;;;;7.60;3.08;;;;;;;;;;5134629;27;20283;-77
2023/07/10 06:37:40;;;;;;;9.57;2.72;;;;;;;;;;5134283;27;20224;-78
2023/07/10 06:40:09;;;;;;;7.40;2.70;;;;;;;;;;5133694;27;20220;-77
2023/07/10 06:42:36;;;;;;;6.70;2.60;;;;;;;;;;5134393;27;20224;-77
2023/07/10 06:45:03;;;;;;;8.88;2.47;;;;;;;;;;5134156;27;20765;-77
2023/07/10 06:47:33;;;;;;;8.88;2.50;;;;;;;;;;5134309;27;20189;-77
2023/07/10 06:50:00;;;;;;;7.25;2.50;;;;;;;;;;5134040;27;20220;-76
2023/07/10 06:52:27;;;;;;;7.22;2.28;;;;;;;;;;5134040;27;20226;-77
2023/07/10 06:54:54;;;;;;;7.70;2.20;;;;;;;;;;5133873;27;20236;-77
2023/07/10 06:57:22;;;;;;;8.57;2.63;;;;;;;;;;5133762;27;20197;-76
2023/07/10 06:59:49;;;;;;;8.75;2.08;;;;;;;;;;5134586;27;20197;-77
2023/07/10 07:02:16;;;;;;;7.20;2.30;;;;;;;;;;5133469;27;20702;-77
2023/07/10 07:04:45;;;;;;;7.78;2.90;;;;;;;;;;5132993;27;20288;-77
2023/07/10 07:07:12;;;;;;;7.05;2.35;;;;;;;;;;5133963;27;20636;-76
2023/07/10 07:09:39;;;;;;;7.47;2.00;;;;;;;;;;5134038;27;20310;-77
2023/07/10 07:12:07;;;;;;;5.57;2.08;;;;;;;;;;5133777;27;20277;-77
2023/07/10 07:14:34;;;;;;;8.02;1.83;;;;;;;;;;5133756;27;20677;-77
2023/07/10 07:17:01;;;;;;;7.80;2.47;;;;;;;;;;5133192;27;20857;-78
2023/07/10 07:19:28;;;;;;;7.00;2.17;;;;;;;;;;5133459;27;20692;-78
2023/07/10 07:21:58;;;;;;;6.45;2.00;;;;;;;;;;5133284;27;20197;-77
2023/07/10 07:24:25;;;;;;;8.73;2.10;;;;;;;;;;5133331;27;20190;-77
2023/07/10 07:26:52;;;;;;;5.85;1.60;;;;;;;;;;5133229;27;20223;-77
2023/07/10 07:29:20;;;;;;;7.97;1.98;;;;;;;;;;5132992;27;20276;-77
2023/07/10 07:31:47;;;;;;;8.07;1.70;;;;;;;;;;5133534;27;20233;-77
2023/07/10 07:34:14;;;;;;;6.63;1.70;;;;;;;;;;5133216;27;20284;-78
2023/07/10 07:36:41;;;;;;;6.22;1.83;;;;;;;;;;5133132;27;20193;-77
2023/07/10 07:39:10;;;;;;;7.20;1.95;;;;;;;;;;5133591;27;20226;-78
2023/07/10 07:41:37;;;;;;;5.28;1.85;;;;;;;;;;5133317;27;20228;-76
2023/07/10 07:44:05;;;;;;;7.03;1.60;;;;;;;;;;5132831;27;20194;-78
2023/07/10 07:46:32;;;;;;;7.25;1.80;;;;;;;;;;5133107;27;20672;-78
2023/07/10 07:48:59;;;;;;;5.82;1.95;;;;;;;;;;5132825;27;20200;-77
2023/07/10 07:51:27;;;;;;;8.40;1.70;;;;;;;;;;5133033;27;20324;-77
2023/07/10 07:54:03;;;;;;;8.07;1.83;;;;;;;;;;5132709;27;20276;-78
2023/07/10 07:56:31;;;;;;;7.95;1.90;;;;;;;;;;5133064;27;20197;-78
2023/07/10 07:58:58;;;;;;;8.30;1.90;;;;;;;;;;5132580;27;20288;-78
2023/07/10 08:01:25;;;;;;;9.05;1.63;;;;;;;;;;5132932;27;20284;-77
2023/07/10 08:03:53;;;;;;;7.00;1.90;;;;;;;;;;5132676;27;20289;-77
2023/07/10 08:06:20;;;;;;;7.70;2.00;;;;;;;;;;5131337;27;20320;-77
2023/07/10 08:08:47;;;;;;;6.40;1.63;;;;;;;;;;5132511;27;20565;-77
2023/07/10 08:11:16;;;;;;;6.53;1.70;;;;;;;;;;5132291;27;20184;-78
2023/07/10 08:13:45;;;;;;;6.90;1.85;;;;;;;;;;5128406;27;20288;-78
2023/07/10 08:16:12;;;;;;;7.28;1.98;;;;;;;;;;5127456;27;20708;-78
2023/07/10 08:18:40;;;;;;;7.93;1.92;;;;;;;;;;5131092;27;20677;-77
2023/07/10 08:21:09;;;;;;;4.10;1.55;;;;;;;;;;5132571;27;20189;-78
2023/07/10 08:23:36;;;;;;;5.10;1.60;;;;;;;;;;5132456;27;20189;-78
2023/07/10 08:26:03;;;;;;;4.80;1.65;;;;;;;;;;5132251;27;20315;-78
2023/07/10 08:28:31;;;;;;;4.65;1.70;;;;;;;;;;5132145;27;20235;-78
2023/07/10 08:30:59;;;;;;;8.57;1.67;;;;;;;;;;5132273;27;20272;-78
2023/07/10 08:33:27;;;;;;;7.25;1.83;;;;;;;;;;5132758;27;20215;-78
2023/07/10 08:35:54;;;;;;;5.90;2.00;;;;;;;;;;5130374;27;20292;-78
2023/07/10 08:38:21;;;;;;;7.38;1.90;;;;;;;;;;5132052;28;20201;-79
2023/07/10 08:40:50;;;;;;;6.13;1.98;;;;;;;;;;5132691;28;20634;-79
2023/07/10 08:43:24;;;;;;;8.48;2.25;;;;;;;;;;5130535;28;20662;-78
2023/07/10 08:45:52;;;;;;;7.25;1.85;;;;;;;;;;5132206;28;20746;-79
2023/07/10 08:48:24;;;;;;;8.00;1.80;;;;;;;;;;5125657;27;20280;-78
2023/07/10 08:50:51;;;;;;;5.85;2.00;;;;;;;;;;5130706;27;20236;-78
2023/07/10 08:53:23;;;;;;;6.75;1.63;;;;;;;;;;5130850;27;20357;-79
2023/07/10 08:55:52;;;;;;;6.38;1.77;;;;;;;;;;5131612;28;20193;-79
2023/07/10 08:58:21;;;;;;;7.35;1.85;;;;;;;;;;5132170;28;20276;-78
2023/07/10 09:00:50;;;;;;;6.07;1.92;;;;;;;;;;5131783;27;20261;-78
2023/07/10 09:03:32;;;;;;;5.47;1.73;;;;;;;;;;5131631;27;20269;-79
2023/07/10 09:06:03;;;;;;;5.40;2.13;;;;;;;;;;5132224;28;20254;-78
2023/07/10 09:08:32;;;;;;;8.77;2.13;;;;;;;;;;5132083;28;20197;-79
2023/07/10 09:11:02;;;;;;;11.00;2.00;;;;;;;;;;5130822;28;20229;-78
2023/07/10 09:13:34;;;;;;;5.18;1.88;;;;;;;;;;5130987;28;20284;-79
2023/07/10 09:16:02;;;;;;;6.18;1.88;;;;;;;;;;5128753;27;20292;-78
2023/07/10 09:18:34;;;;;;;5.80;2.00;;;;;;;;;;5131635;28;20232;-78
2023/07/10 09:21:09;;;;;;;9.18;2.47;;;;;;;;;;5132121;28;20215;-77
2023/07/10 09:23:36;;;;;;;6.43;2.20;;;;;;;;;;5132235;27;20681;-78
2023/07/10 09:26:09;;;;;;;5.47;2.15;;;;;;;;;;5131166;27;20784;-79
2023/07/10 09:28:37;;;;;;;7.75;2.25;;;;;;;;;;5128804;27;20283;-78
2023/07/10 09:31:07;;;;;;;7.88;2.60;;;;;;;;;;5132663;27;20231;-78
2023/07/10 09:33:38;;;;;;;5.95;2.60;;;;;;;;;;5130083;27;20249;-78
2023/07/10 09:36:14;;;;;;;5.93;2.47;;;;;;;;;;5135860;27;20215;-79
2023/07/10 09:38:44;;;;;;;6.00;2.47;;;;;;;;;;5135438;27;20219;-79
2023/07/10 09:41:12;;;;;;;8.50;2.95;;;;;;;;;;5135422;27;20188;-79
2023/07/10 09:43:48;;;;;;;9.02;2.70;;;;;;;;;;5127565;27;20276;-79
2023/07/10 09:46:16;;;;;;;4.57;1.80;;;;;;;;;;5114337;28;20308;-78
2023/07/10 09:48:44;;;;;;;7.20;2.30;;;;;;;;;;5114933;28;20214;-79
2023/07/10 09:51:12;;;;;;;6.00;1.90;;;;;;;;;;5114811;27;20320;-78
2023/07/10 09:53:45;;;;;;;4.82;1.92;;;;;;;;;;5114971;28;20239;-78
2023/07/10 09:56:20;;;;;;;4.05;1.95;;;;;;;;;;5113970;28;20238;-79
2023/07/10 09:58:48;;;;;;;5.93;2.28;;;;;;;;;;5115092;28;20221;-79
2023/07/10 10:01:15;;;;;;;6.93;2.20;;;;;;;;;;5114267;27;20297;-78
2023/07/10 10:03:42;;;;;;;7.15;2.50;;;;;;;;;;5128863;27;20236;-79
2023/07/10 10:06:19;;;;;;;7.30;2.33;;;;;;;;;;5134775;27;20247;-78
2023/07/10 10:08:49;;;;;;;5.18;2.80;;;;;;;;;;5133722;27;20239;-78
2023/07/10 10:11:17;;;;;;;5.83;2.60;;;;;;;;;;5134493;27;20552;-79
2023/07/10 10:13:45;;;;;;;4.80;2.30;;;;;;;;;;5134154;27;20242;-80
2023/07/10 10:16:18;;;;;;;6.28;2.55;;;;;;;;;;5134715;27;20287;-78
2023/07/10 10:18:47;;;;;;;6.38;2.45;;;;;;;;;;5123581;27;20317;-79
2023/07/10 10:21:16;;;;;;;7.43;2.65;;;;;;;;;;5134680;27;20280;-79
2023/07/10 10:23:44;;;;;;;5.10;2.63;;;;;;;;;;5122721;27;20619;-79
2023/07/10 10:26:19;;;;;;;7.18;2.58;;;;;;;;;;5113564;27;20320;-78
2023/07/10 10:28:52;;;;;;;5.78;2.58;;;;;;;;;;5133954;27;20296;-79
2023/07/10 10:31:22;;;;;;;8.23;2.42;;;;;;;;;;5134269;27;20658;-78
2023/07/10 10:33:56;;;;;;;6.22;2.10;;;;;;;;;;5134733;27;20284;-79
2023/07/10 10:36:29;;;;;;;5.60;2.05;;;;;;;;;;5129975;27;20236;-78
2023/07/10 10:38:59;;;;;;;5.82;1.83;;;;;;;;;;5115238;27;20655;-78
2023/07/10 10:41:37;;;;;;;4.50;1.50;;;;;;;;;;5113560;28;20288;-78
2023/07/10 10:44:08;;;;;;;4.65;1.48;;;;;;;;;;5113867;27;20197;-79
2023/07/10 10:46:48;;;;;;;4.22;1.50;;;;;;;;;;5113388;27;20214;-78
2023/07/10 10:49:31;;;;;;;3.92;1.73;;;;;;;;;;5113191;27;20220;-79
2023/07/10 10:52:03;;;;;;;4.18;1.80;;;;;;;;;;5112980;28;20777;-79
2023/07/10 10:54:35;;;;;;;8.88;2.03;;;;;;;;;;5112966;28;20294;-78
2023/07/10 10:57:10;;;;;;;4.70;1.95;;;;;;;;;;5113691;28;20230;-79
2023/07/10 10:59:42;;;;;;;4.53;1.67;;;;;;;;;;5116037;27;20223;-79
2023/07/10 11:02:18;;;;;;;5.43;2.13;;;;;;;;;;5133761;27;20201;-79
2023/07/10 11:04:48;;;;;;;5.63;1.83;;;;;;;;;;5118526;27;20280;-79
2023/07/10 11:07:17;;;;;;;4.72;1.90;;;;;;;;;;5112629;27;20261;-79
2023/07/10 11:09:48;;;;;;;6.38;2.03;;;;;;;;;;5115606;27;20274;-78
2023/07/10 11:12:17;;;;;;;4.65;1.63;;;;;;;;;;5113253;28;20247;-81
2023/07/10 11:14:45;;;;;;;5.93;1.67;;;;;;;;;;5113124;28;20225;-79
2023/07/10 11:17:13;;;;;;;4.40;1.90;;;;;;;;;;5133226;27;20221;-79
2023/07/10 11:19:41;;;;;;;3.22;1.67;;;;;;;;;;5122439;27;20281;-80
2023/07/10 11:22:12;;;;;;;5.07;1.50;;;;;;;;;;5124829;27;20225;-79
2023/07/10 11:24:39;;;;;;;4.55;1.75;;;;;;;;;;5112398;28;20226;-78
2023/07/10 11:27:13;;;;;;;3.65;1.60;;;;;;;;;;5112726;28;20312;-79
2023/07/10 11:29:43;;;;;;;3.92;1.42;;;;;;;;;;5113305;27;20239;-79
2023/07/10 11:32:18;;;;;;;5.03;1.48;;;;;;;;;;5117255;27;20204;-78
2023/07/10 11:34:53;;;;;;;3.13;1.30;;;;;;;;;;5131136;27;20200;-79
2023/07/10 11:37:40;;;;;;;2.65;1.35;;;;;;;;;;5132997;27;20283;-79
2023/07/10 11:40:26;;;;;;;3.67;1.50;;;;;;;;;;5112519;28;20197;-78
2023/07/10 11:42:53;;;;;;;4.38;1.42;;;;;;;;;;5136052;27;20560;-79
2023/07/10 11:45:26;;;;;;;4.43;1.40;;;;;;;;;;5153976;27;20634;-78
2023/07/10 11:47:53;;;;;;;4.55;1.52;;;;;;;;;;5153563;27;20322;-79
2023/07/10 11:50:24;;;;;;;3.95;1.70;;;;;;;;;;5139698;27;20732;-78
2023/07/10 11:53:07;;;;;;;3.05;1.58;;;;;;;;;;5119908;27;20292;-77
2023/07/10 11:55:42;;;;;;;5.10;1.73;;;;;;;;;;5112267;28;20208;-79
2023/07/10 11:58:27;;;;;;;2.70;1.27;;;;;;;;;;5112809;27;20718;-79
2023/07/10 12:01:05;;;;;;;4.63;1.55;;;;;;;;;;5112331;27;20246;-78
2023/07/10 12:03:34;;;;;;;4.60;1.83;;;;;;;;;;5112853;27;20247;-79
2023/07/10 12:06:01;;;;;;;3.92;1.60;;;;;;;;;;5135744;27;20280;-79
2023/07/10 12:08:30;;;;;;;5.25;1.58;;;;;;;;;;5132126;27;20316;-79
2023/07/10 12:10:59;;;;;;;4.07;1.50;;;;;;;;;;5132253;27;20641;-79
2023/07/10 12:13:27;;;;;;;3.28;1.35;;;;;;;;;;5144979;27;20192;-79
2023/07/10 12:15:56;;;;;;;4.15;1.48;;;;;;;;;;5144727;27;20197;-79
2023/07/10 12:18:26;;;;;;;5.57;2.00;;;;;;;;;;5111969;28;20201;-78
2023/07/10 12:20:54;;;;;;;4.30;1.40;;;;;;;;;;5132066;27;20201;-79
2023/07/10 12:23:21;;;;;;;4.50;1.40;;;;;;;;;;5137890;27;20242;-79
2023/07/10 12:25:49;;;;;;;3.35;1.80;;;;;;;;;;5139519;27;20282;-79
2023/07/10 12:28:21;;;;;;;4.78;1.42;;;;;;;;;;5153309;27;20224;-78
2023/07/10 12:30:49;;;;;;;3.53;1.60;;;;;;;;;;5152820;27;20727;-79
2023/07/10 12:33:30;;;;;;;2.92;1.33;;;;;;;;;;5133919;27;20193;-79
2023/07/10 12:36:02;;;;;;;3.45;1.45;;;;;;;;;;5136138;27;20200;-78
2023/07/10 12:38:30;;;;;;;6.25;1.90;;;;;;;;;;5118969;28;20205;-79
2023/07/10 12:40:57;;;;;;;4.90;1.60;;;;;;;;;;5113117;28;20207;-79
2023/07/10 12:43:26;;;;;;;3.97;1.60;;;;;;;;;;5122393;28;20323;-79
2023/07/10 12:45:57;;;;;;;3.17;1.60;;;;;;;;;;5116399;28;20221;-78
2023/07/10 12:48:25;;;;;;;4.43;1.58;;;;;;;;;;5126764;28;20225;-79
2023/07/10 12:50:56;;;;;;;4.88;1.50;;;;;;;;;;5121408;27;20323;-79
2023/07/10 12:53:23;;;;;;;5.65;1.20;;;;;;;;;;5132093;28;20197;-79
2023/07/10 12:55:54;;;;;;;5.13;1.45;;;;;;;;;;5131462;28;20293;-79
2023/07/10 12:58:23;;;;;;;2.90;1.42;;;;;;;;;;5131234;27;20288;-79
2023/07/10 13:00:51;;;;;;;6.65;1.77;;;;;;;;;;5130737;27;20305;-79
2023/07/10 13:03:23;;;;;;;5.50;1.80;;;;;;;;;;5133023;27;20231;-79
2023/07/10 13:06:00;;;;;;;4.38;1.50;;;;;;;;;;5136033;27;20189;-79
2023/07/10 13:08:35;;;;;;;3.83;1.50;;;;;;;;;;5130905;27;20276;-78
2023/07/10 13:11:02;;;;;;;2.80;1.20;;;;;;;;;;5135794;27;20289;-79
2023/07/10 13:13:32;;;;;;;5.40;1.67;;;;;;;;;;5136145;27;20613;-79
2023/07/10 13:16:00;;;;;;;3.70;1.40;;;;;;;;;;5134678;27;20228;-79
2023/07/10 13:18:28;;;;;;;4.28;1.58;;;;;;;;;;5121357;27;20206;-78
2023/07/10 13:20:55;;;;;;;4.30;1.63;;;;;;;;;;5130823;27;20211;-79
2023/07/10 13:23:23;;;;;;;5.25;1.80;;;;;;;;;;5116179;27;20653;-79
2023/07/10 13:25:52;;;;;;;4.72;1.60;;;;;;;;;;5114991;28;20200;-78
2023/07/10 13:28:20;;;;;;;4.47;2.30;;;;;;;;;;5115815;27;20233;-78
2023/07/10 13:30:48;;;;;;;6.00;1.70;;;;;;;;;;5134508;27;20201;-78
2023/07/10 13:33:17;;;;;;;4.93;1.63;;;;;;;;;;5135366;27;20189;-78
2023/07/10 13:35:44;;;;;;;3.85;1.40;;;;;;;;;;5133917;27;20212;-78
2023/07/10 13:38:12;;;;;;;3.65;1.48;;;;;;;;;;5128389;27;20702;-78
2023/07/10 13:40:41;;;;;;;5.18;1.70;;;;;;;;;;5129967;27;20205;-79
2023/07/10 13:43:15;;;;;;;3.90;1.60;;;;;;;;;;5139329;27;20643;-79
2023/07/10 13:45:43;;;;;;;3.40;1.75;;;;;;;;;;5135578;27;20203;-79
2023/07/10 13:48:11;;;;;;;3.97;1.73;;;;;;;;;;5133934;27;20224;-78
2023/07/10 13:50:38;;;;;;;4.40;1.98;;;;;;;;;;5121793;27;20308;-80
2023/07/10 13:53:06;;;;;;;7.05;2.28;;;;;;;;;;5135113;27;20280;-78
2023/07/10 13:55:34;;;;;;;4.65;2.30;;;;;;;;;;5124723;27;20208;-79
2023/07/10 13:58:02;;;;;;;3.85;1.80;;;;;;;;;;5124952;27;20284;-79
2023/07/10 14:00:31;;;;;;;6.53;2.00;;;;;;;;;;5126287;27;20194;-78
2023/07/10 14:02:59;;;;;;;4.28;1.80;;;;;;;;;;5113630;27;20260;-79
2023/07/10 14:05:26;;;;;;;6.13;2.20;;;;;;;;;;5115018;27;20229;-78
2023/07/10 14:07:53;;;;;;;5.93;1.88;;;;;;;;;;5114219;28;20302;-78
2023/07/10 14:10:22;;;;;;;5.45;2.08;;;;;;;;;;5116786;27;20307;-79
2023/07/10 14:12:49;;;;;;;4.70;1.88;;;;;;;;;;5116424;27;20198;-78
2023/07/10 14:15:19;;;;;;;5.35;2.10;;;;;;;;;;5117771;27;20189;-78
2023/07/10 14:17:47;;;;;;;4.75;1.90;;;;;;;;;;5134629;27;20804;-77
2023/07/10 14:20:19;;;;;;;5.63;2.13;;;;;;;;;;5134534;27;20235;-78
2023/07/10 14:22:47;;;;;;;4.80;1.85;;;;;;;;;;5125466;27;20201;-78
2023/07/10 14:25:15;;;;;;;4.88;1.92;;;;;;;;;;5132944;27;20292;-77
2023/07/10 14:27:42;;;;;;;5.70;1.98;;;;;;;;;;5134425;27;20266;-78
2023/07/10 14:30:16;;;;;;;4.85;2.20;;;;;;;;;;5134114;27;20273;-78
2023/07/10 14:32:45;;;;;;;3.50;2.05;;;;;;;;;;5133745;27;20223;-78
2023/07/10 14:35:17;;;;;;;6.15;1.90;;;;;;;;;;5126804;27;20194;-79
2023/07/10 14:37:45;;;;;;;4.85;2.22;;;;;;;;;;5119332;27;20197;-79
2023/07/10 14:40:13;;;;;;;5.43;2.38;;;;;;;;;;5132812;27;20666;-79
2023/07/10 14:42:40;;;;;;;5.05;1.83;;;;;;;;;;5126480;27;20193;-79
2023/07/10 14:45:08;;;;;;;4.03;1.90;;;;;;;;;;5129896;27;20299;-79
2023/07/10 14:47:37;;;;;;;4.97;1.80;;;;;;;;;;5117156;27;20308;-78
2023/07/10 14:50:11;;;;;;;3.78;1.80;;;;;;;;;;5113338;28;20255;-78